F/V Fleur Des Vagues — FPEJ — position and weather

sailwx.info

Track history (hours):
 
Tides and Currents Weather Stations Pressure Air Temp Water Temp Dewpoint Dewpoint Depression Visibility Wind Speed Wind Dir Waves Ship Positions

F/V Fleur Des Vagues

Last reported at 2016-Feb-05 19:33 UTC. Time now 2016-Feb-07 01:18 UTC.
Position N 46°30' W 001°47'.

Length 16 m.

Type: Fishing. MMSI: 227893000.

Date/timePositionNaut miles runAvg speedWind from/ knotsBaromVisibWave heightAir tempDewpointWater temp
2016-Feb-05 19:33N 46°30' W 001°47'0 0.0
2016-Feb-05 18:33N 46°30' W 001°47'2 2.1
2016-Feb-05 17:33N 46°28' W 001°48'7 7.2
2016-Feb-05 16:33N 46°21' W 001°50'6 6.2
2016-Feb-05 15:33N 46°15' W 001°52'4 1.2
2016-Feb-05 12:17N 46°12' W 001°55'1 0.9
2016-Feb-05 11:32N 46°12' W 001°56'1 0.1
2016-Feb-05 05:33N 46°12' W 001°57'0 0.2
2016-Feb-05 03:33N 46°12' W 001°56'2 0.9
2016-Feb-05 01:32N 46°13' W 001°57'0 0.0
2016-Feb-04 22:10N 46°13' W 001°57'0 0.0
2016-Feb-04 21:25N 46°13' W 001°57'0 0.0
2016-Feb-04 20:31N 46°13' W 001°57'0 0.1
2016-Feb-04 19:31N 46°13' W 001°57'0 0.1
2016-Feb-04 18:31N 46°13' W 001°57'0 0.0
2016-Feb-04 14:14N 46°13' W 001°57'0 0.5
2016-Feb-04 13:23N 46°13' W 001°58'  
2016-Feb-01 09:31N 45°42' W 001°34'17 8.4
2016-Feb-01 07:30N 45°58' W 001°40'10 8.2
2016-Feb-01 06:18N 46°08' W 001°42'6 8.1
2016-Feb-01 05:33N 46°14' W 001°43'8 8.0
2016-Feb-01 04:33N 46°22' W 001°45'7 7.5
2016-Feb-01 03:33N 46°29' W 001°47'1 0.6
2016-Feb-01 02:33N 46°30' W 001°47'0 0.0
2016-Feb-01 01:33N 46°30' W 001°47'0 0.0
2016-Feb-01 00:33N 46°30' W 001°47'0 0.0
2016-Jan-31 23:33N 46°30' W 001°47'0 0.0
2016-Jan-31 22:33N 46°30' W 001°47'0 0.0
2016-Jan-31 21:33N 46°30' W 001°47'0 0.0
2016-Jan-31 20:33N 46°30' W 001°47'0 0.0
2016-Jan-31 19:33N 46°30' W 001°47'0 0.0
2016-Jan-31 18:33N 46°30' W 001°47'0 0.0
2016-Jan-31 17:33N 46°30' W 001°47'0 0.0
2016-Jan-31 16:33N 46°30' W 001°47'0 0.0
2016-Jan-31 15:33N 46°30' W 001°47'0 0.0
2016-Jan-31 14:33N 46°30' W 001°47'0 0.0
2016-Jan-31 13:33N 46°30' W 001°47'0 0.0
2016-Jan-31 12:33N 46°30' W 001°47'0 0.0
2016-Jan-31 11:33N 46°30' W 001°47'0 0.0
2016-Jan-31 10:33N 46°30' W 001°47'0 0.0
2016-Jan-31 09:33N 46°30' W 001°47'0 0.0
2016-Jan-31 08:33N 46°30' W 001°47'0 0.0
2016-Jan-31 07:33N 46°30' W 001°47'0 0.0
2016-Jan-31 06:33N 46°30' W 001°47'0 0.0
2016-Jan-31 05:33N 46°30' W 001°47'0 0.0
2016-Jan-31 04:33N 46°30' W 001°47'0 0.0
2016-Jan-31 03:33N 46°30' W 001°47'0 0.0
2016-Jan-31 02:33N 46°30' W 001°47'0 0.0
2016-Jan-31 01:33N 46°30' W 001°47'0 0.0
2016-Jan-31 00:33N 46°30' W 001°47'0 0.0
2016-Jan-30 23:33N 46°30' W 001°47'0 0.0
2016-Jan-30 22:33N 46°30' W 001°47'0 0.0
2016-Jan-30 21:33N 46°30' W 001°47'0 0.0
2016-Jan-30 20:33N 46°30' W 001°47'0 0.0
2016-Jan-30 19:33N 46°30' W 001°47'0 0.0
2016-Jan-30 18:33N 46°30' W 001°47'0 0.0
2016-Jan-30 17:33N 46°30' W 001°47'0 0.0
2016-Jan-30 16:33N 46°30' W 001°47'0 0.0
2016-Jan-30 15:33N 46°30' W 001°47'0 0.0
2016-Jan-30 14:33N 46°30' W 001°47'0 0.0
2016-Jan-30 13:33N 46°30' W 001°47'0 0.0
2016-Jan-30 12:33N 46°30' W 001°47'0 0.0
2016-Jan-30 11:33N 46°30' W 001°47'0 0.0
2016-Jan-30 10:33N 46°30' W 001°47'0 0.4
2016-Jan-30 09:33N 46°30' W 001°48'8 8.0
2016-Jan-30 08:34N 46°22' W 001°49'8 8.3
2016-Jan-30 07:33N 46°14' W 001°51'13 0.6
2016-Jan-29 10:23N 46°01' W 001°54'0 0.1
2016-Jan-29 08:32N 46°01' W 001°54'2 0.3
2016-Jan-29 03:33N 45°59' W 001°54'11 1.9
2016-Jan-28 21:33N 46°10' W 001°51'7 7.5
2016-Jan-28 20:33N 46°18' W 001°50'7 7.0
2016-Jan-28 19:33N 46°25' W 001°48'5 5.5
2016-Jan-28 18:33N 46°30' W 001°47'0 0.0
2016-Jan-28 17:33N 46°30' W 001°47'0 0.0
2016-Jan-28 16:33N 46°30' W 001°47'6 5.7
2016-Jan-28 15:33N 46°24' W 001°48'9 9.2
2016-Jan-28 14:33N 46°15' W 001°50'5 0.5
2016-Jan-28 03:32N 46°10' W 001°52'7 7.5
2016-Jan-28 02:33N 46°17' W 001°50'7 7.3
2016-Jan-28 01:33N 46°24' W 001°48'6 5.7
2016-Jan-28 00:33N 46°30' W 001°47'0 0.0
2016-Jan-27 23:33N 46°30' W 001°47'0 0.0
2016-Jan-27 22:33N 46°30' W 001°47'0 0.0
2016-Jan-27 21:33N 46°30' W 001°47'0 0.0
2016-Jan-27 20:33N 46°30' W 001°47'0 0.0
2016-Jan-27 19:33N 46°30' W 001°47'0 0.0
2016-Jan-27 18:33N 46°30' W 001°47'0 0.0
2016-Jan-27 17:33N 46°30' W 001°47'0 0.0
2016-Jan-27 16:33N 46°30' W 001°47'0 0.0
2016-Jan-27 15:33N 46°30' W 001°47'0 0.1
2016-Jan-27 14:33N 46°30' W 001°47'0 0.1
2016-Jan-27 13:33N 46°30' W 001°47'6 6.2
2016-Jan-27 12:33N 46°24' W 001°48'9 8.9
2016-Jan-27 11:34N 46°15' W 001°51'9 8.4
2016-Jan-27 10:32N 46°06' W 001°53'8 7.6
2016-Jan-27 09:31N 45°59' W 001°53'1 0.8
2016-Jan-27 08:33N 45°58' W 001°52'1 1.3
2016-Jan-27 07:33N 45°60' W 001°52'2 1.7
2016-Jan-27 06:33N 45°58' W 001°53'1 1.3
2016-Jan-27 05:33N 45°59' W 001°52'1 1.2
2016-Jan-27 04:34N 45°58' W 001°52'1 0.8
2016-Jan-27 03:31N 45°59' W 001°53'  
Track history (hours):
 
Tides and Currents Weather Stations Pressure Air Temp Water Temp Dewpoint Dewpoint Depression Visibility Wind Speed Wind Dir Waves Ship Positions

F/V Fleur Des Vagues

Last reported at 2016-Feb-05 19:33 UTC. Time now 2016-Feb-07 01:18 UTC.
Position N 46°30' W 001°47'.

Length 16 m.

Type: Fishing. MMSI: 227893000.

Date/timePositionNaut miles runAvg speedWind from/ knotsBaromVisibWave heightAir tempDewpointWater temp
2016-Feb-05 19:33N 46°30' W 001°47'0 0.0
2016-Feb-05 18:33N 46°30' W 001°47'2 2.1
2016-Feb-05 17:33N 46°28' W 001°48'7 7.2
2016-Feb-05 16:33N 46°21' W 001°50'6 6.2
2016-Feb-05 15:33N 46°15' W 001°52'4 1.2
2016-Feb-05 12:17N 46°12' W 001°55'1 0.9
2016-Feb-05 11:32N 46°12' W 001°56'1 0.1
2016-Feb-05 05:33N 46°12' W 001°57'0 0.2
2016-Feb-05 03:33N 46°12' W 001°56'2 0.9
2016-Feb-05 01:32N 46°13' W 001°57'0 0.0
2016-Feb-04 22:10N 46°13' W 001°57'0 0.0
2016-Feb-04 21:25N 46°13' W 001°57'0 0.0
2016-Feb-04 20:31N 46°13' W 001°57'0 0.1
2016-Feb-04 19:31N 46°13' W 001°57'0 0.1
2016-Feb-04 18:31N 46°13' W 001°57'0 0.0
2016-Feb-04 14:14N 46°13' W 001°57'0 0.5
2016-Feb-04 13:23N 46°13' W 001°58'  
2016-Feb-01 09:31N 45°42' W 001°34'17 8.4
2016-Feb-01 07:30N 45°58' W 001°40'10 8.2
2016-Feb-01 06:18N 46°08' W 001°42'6 8.1
2016-Feb-01 05:33N 46°14' W 001°43'8 8.0
2016-Feb-01 04:33N 46°22' W 001°45'7 7.5
2016-Feb-01 03:33N 46°29' W 001°47'1 0.6
2016-Feb-01 02:33N 46°30' W 001°47'0 0.0
2016-Feb-01 01:33N 46°30' W 001°47'0 0.0
2016-Feb-01 00:33N 46°30' W 001°47'0 0.0
2016-Jan-31 23:33N 46°30' W 001°47'0 0.0
2016-Jan-31 22:33N 46°30' W 001°47'0 0.0
2016-Jan-31 21:33N 46°30' W 001°47'0 0.0
2016-Jan-31 20:33N 46°30' W 001°47'0 0.0
2016-Jan-31 19:33N 46°30' W 001°47'0 0.0
2016-Jan-31 18:33N 46°30' W 001°47'0 0.0
2016-Jan-31 17:33N 46°30' W 001°47'0 0.0
2016-Jan-31 16:33N 46°30' W 001°47'0 0.0
2016-Jan-31 15:33N 46°30' W 001°47'0 0.0
2016-Jan-31 14:33N 46°30' W 001°47'0 0.0
2016-Jan-31 13:33N 46°30' W 001°47'0 0.0
2016-Jan-31 12:33N 46°30' W 001°47'0 0.0
2016-Jan-31 11:33N 46°30' W 001°47'0 0.0
2016-Jan-31 10:33N 46°30' W 001°47'0 0.0
2016-Jan-31 09:33N 46°30' W 001°47'0 0.0
2016-Jan-31 08:33N 46°30' W 001°47'0 0.0
2016-Jan-31 07:33N 46°30' W 001°47'0 0.0
2016-Jan-31 06:33N 46°30' W 001°47'0 0.0
2016-Jan-31 05:33N 46°30' W 001°47'0 0.0
2016-Jan-31 04:33N 46°30' W 001°47'0 0.0
2016-Jan-31 03:33N 46°30' W 001°47'0 0.0
2016-Jan-31 02:33N 46°30' W 001°47'0 0.0
2016-Jan-31 01:33N 46°30' W 001°47'0 0.0
2016-Jan-31 00:33N 46°30' W 001°47'0 0.0
2016-Jan-30 23:33N 46°30' W 001°47'0 0.0
2016-Jan-30 22:33N 46°30' W 001°47'0 0.0
2016-Jan-30 21:33N 46°30' W 001°47'0 0.0
2016-Jan-30 20:33N 46°30' W 001°47'0 0.0
2016-Jan-30 19:33N 46°30' W 001°47'0 0.0
2016-Jan-30 18:33N 46°30' W 001°47'0 0.0
2016-Jan-30 17:33N 46°30' W 001°47'0 0.0
2016-Jan-30 16:33N 46°30' W 001°47'0 0.0
2016-Jan-30 15:33N 46°30' W 001°47'0 0.0
2016-Jan-30 14:33N 46°30' W 001°47'0 0.0
2016-Jan-30 13:33N 46°30' W 001°47'0 0.0
2016-Jan-30 12:33N 46°30' W 001°47'0 0.0
2016-Jan-30 11:33N 46°30' W 001°47'0 0.0
2016-Jan-30 10:33N 46°30' W 001°47'0 0.4
2016-Jan-30 09:33N 46°30' W 001°48'8 8.0
2016-Jan-30 08:34N 46°22' W 001°49'8 8.3
2016-Jan-30 07:33N 46°14' W 001°51'13 0.6
2016-Jan-29 10:23N 46°01' W 001°54'0 0.1
2016-Jan-29 08:32N 46°01' W 001°54'2 0.3
2016-Jan-29 03:33N 45°59' W 001°54'11 1.9
2016-Jan-28 21:33N 46°10' W 001°51'7 7.5
2016-Jan-28 20:33N 46°18' W 001°50'7 7.0
2016-Jan-28 19:33N 46°25' W 001°48'5 5.5
2016-Jan-28 18:33N 46°30' W 001°47'0 0.0
2016-Jan-28 17:33N 46°30' W 001°47'0 0.0
2016-Jan-28 16:33N 46°30' W 001°47'6 5.7
2016-Jan-28 15:33N 46°24' W 001°48'9 9.2
2016-Jan-28 14:33N 46°15' W 001°50'5 0.5
2016-Jan-28 03:32N 46°10' W 001°52'7 7.5
2016-Jan-28 02:33N 46°17' W 001°50'7 7.3
2016-Jan-28 01:33N 46°24' W 001°48'6 5.7
2016-Jan-28 00:33N 46°30' W 001°47'0 0.0
2016-Jan-27 23:33N 46°30' W 001°47'0 0.0
2016-Jan-27 22:33N 46°30' W 001°47'0 0.0
2016-Jan-27 21:33N 46°30' W 001°47'0 0.0
2016-Jan-27 20:33N 46°30' W 001°47'0 0.0
2016-Jan-27 19:33N 46°30' W 001°47'0 0.0
2016-Jan-27 18:33N 46°30' W 001°47'0 0.0
2016-Jan-27 17:33N 46°30' W 001°47'0 0.0
2016-Jan-27 16:33N 46°30' W 001°47'0 0.0
2016-Jan-27 15:33N 46°30' W 001°47'0 0.1
2016-Jan-27 14:33N 46°30' W 001°47'0 0.1
2016-Jan-27 13:33N 46°30' W 001°47'6 6.2
2016-Jan-27 12:33N 46°24' W 001°48'9 8.9
2016-Jan-27 11:34N 46°15' W 001°51'9 8.4
2016-Jan-27 10:32N 46°06' W 001°53'8 7.6
2016-Jan-27 09:31N 45°59' W 001°53'1 0.8
2016-Jan-27 08:33N 45°58' W 001°52'1 1.3
2016-Jan-27 07:33N 45°60' W 001°52'2 1.7
2016-Jan-27 06:33N 45°58' W 001°53'1 1.3
2016-Jan-27 05:33N 45°59' W 001°52'1 1.2
2016-Jan-27 04:34N 45°58' W 001°52'1 0.8
2016-Jan-27 03:31N 45°59' W 001°53'  

Dump ship's entire track history